Latest Weather Observations for Fowlers Gap

IDN60801

Issued at 9:03 pm EST Thursday 25 August 2016 (issued every 30 minutes, with the page automatically refreshed every 10 minutes)

About weather observations | Map of weather stations | Latest weather observations for NSW | Other Formats
Station Details ID: 046128 Name: FOWLERS GAP AWS Lat: -31.09 Lon: 141.70 Height: 181.0 m
Data from the previous 72 hours. | See also: Recent months at Fowlers Gap
Date/Time
EST
Temp
°C
App
Temp
°C
Dew
Point
°C
Rel
Hum
%
Delta-T
°C
Wind Press
QNH
hPa
Press
MSL
hPa
Rain since
9am
mm
Dir  Spd
km/h
Gust
km/h
Spd
kts
Gust
kts
25/09:00pm 10.1 6.6 5.5 73 2.1 S 13 15 7 8 1020.4 1020.5 0.0
25/08:30pm 10.0 7.0 6.0 76 1.9 S 11 15 6 8 1020.1 1020.2 0.0
25/08:00pm 10.2 7.3 6.5 78 1.7 SSE 11 11 6 6 1019.7 1019.8 0.0
25/07:30pm 10.9 8.1 6.8 76 2.0 SSE 11 13 6 7 1019.2 1019.3 0.0
25/07:00pm 11.5 9.1 7.2 75 2.1 S 9 9 5 5 1018.7 1018.7 0.0
25/06:30pm 12.8 10.2 6.2 64 3.2 SE 9 11 5 6 1018.3 1018.3 0.0
25/06:00pm 14.2 9.8 4.8 53 4.4 SE 17 24 9 13 1018.0 1018.0 0.0
25/05:30pm 14.6 11.5 5.7 55 4.3 SE 11 15 6 8 1017.6 1017.6 0.0
25/05:00pm 15.5 11.9 5.1 50 5.0 SE 13 17 7 9 1017.4 1017.4 0.0
25/04:30pm 15.0 11.0 5.0 51 4.7 SSE 15 20 8 11 1017.1 1017.1 0.0
25/04:00pm 15.4 11.0 5.0 50 4.9 S 17 22 9 12 1017.0 1017.0 0.0
25/03:30pm 14.8 9.7 4.2 49 4.9 SSE 20 26 11 14 1016.9 1016.9 0.0
25/03:00pm 16.0 11.5 5.9 51 4.9 SSE 19 37 10 20 1016.9 1016.9 0.0
25/02:30pm 15.1 11.5 6.9 58 4.1 SSE 15 19 8 10 1017.1 1017.1 0.0
25/02:00pm 13.9 7.9 5.5 57 4.0 SSW 26 44 14 24 1017.2 1017.2 0.0
25/01:55pm 14.3 9.8 6.9 61 3.6 SW 20 43 11 23 1017.3 1017.3 0.0
25/01:30pm 16.2 13.5 3.9 44 5.8 SSE 7 11 4 6 1017.4 1017.4 0.0
25/01:00pm 15.9 12.8 3.7 44 5.7 SSE 9 15 5 8 1017.8 1017.8 0.0
25/12:30pm 15.7 12.8 4.7 48 5.2 WSW 9 13 5 7 1018.2 1018.2 0.0
25/12:00pm 15.2 13.2 4.3 48 5.1 NW 4 7 2 4 1018.3 1018.3 0.0
25/11:30am 14.4 12.4 4.4 51 4.7 SE 4 9 2 5 1018.6 1018.6 0.0
25/11:00am 13.8 11.6 5.2 56 4.0 S 6 11 3 6 1018.8 1018.8 0.0
25/10:30am 12.8 10.5 5.0 59 3.6 SE 6 9 3 5 1018.7 1018.7 0.0
25/10:00am 11.9 9.4 4.9 62 3.2 S 7 9 4 5 1018.7 1018.7 0.0
25/09:30am 11.1 8.2 4.8 65 2.9 SSE 9 13 5 7 1018.6 1018.6 0.0
25/09:00am 8.6 6.5 6.7 88 0.9 SSW 7 9 4 5 1018.3 1018.3 0.2
25/08:30am 6.7 5.6 5.3 91 0.6 CALM 0 0 0 0 1017.7 1017.7 0.2
25/08:00am 4.9 2.4 4.0 94 0.4 NNW 6 7 3 4 1017.4 1017.4 0.2
25/07:30am 3.3 0.7 3.0 98 0.1 SSW 6 11 3 6 1017.1 1017.1 0.2
25/07:00am 2.7 1.1 2.3 97 0.2 CALM 0 0 0 0 1016.6 1016.6 0.2
25/06:30am 3.1 1.6 2.8 98 0.1 CALM 0 0 0 0 1016.4 1016.4 0.2
25/06:00am 3.3 1.8 2.9 97 0.2 CALM 0 0 0 0 1016.2 1016.2 0.2
25/05:30am 3.5 2.0 3.1 97 0.2 CALM 0 0 0 0 1015.9 1015.9 0.2
25/05:00am 4.1 2.7 3.8 98 0.1 CALM 0 0 0 0 1015.5 1015.5 0.2
25/04:30am 3.9 2.5 3.6 98 0.1 CALM 0 0 0 0 1015.2 1015.2 0.2
25/04:00am 4.0 2.6 3.7 98 0.1 CALM 0 0 0 0 1015.3 1015.3 0.2
25/03:30am 4.2 2.5 3.9 98 0.1 WNW 2 7 1 4 1015.4 1015.4 0.2
25/03:00am 4.2 2.8 3.8 97 0.2 CALM 0 0 0 0 1015.3 1015.3 0.2
25/02:30am 4.4 3.1 4.1 98 0.1 CALM 0 6 0 3 1015.4 1015.4 0.2
25/02:00am 4.7 3.4 4.3 97 0.2 CALM 0 0 0 0 1015.4 1015.4 0.2
25/01:30am 4.9 3.7 4.5 97 0.2 CALM 0 0 0 0 1015.5 1015.5 0.2
25/01:00am 4.9 3.6 4.2 95 0.3 CALM 0 0 0 0 1015.5 1015.5 0.2
25/12:30am 5.4 4.2 4.5 94 0.4 CALM 0 0 0 0 1015.6 1015.6 0.2
25/12:00am 5.8 3.9 5.1 95 0.3 W 4 7 2 4 1015.7 1015.7 0.2
 
Date/Time
EST
Temp
°C
App
Temp
°C
Dew
Point
°C
Rel
Hum
%
Delta-T
°C
Wind Press
QNH
hPa
Press
MSL
hPa
Rain since
9am
mm
Dir  Spd
km/h
Gust
km/h
Spd
kts
Gust
kts
24/11:30pm 6.2 5.1 5.2 93 0.4 CALM 0 6 0 3 1015.7 1015.7 0.2
24/11:00pm 6.6 5.6 5.6 93 0.4 CALM 0 0 0 0 1015.8 1015.8 0.2
24/10:30pm 6.8 5.8 5.4 91 0.6 CALM 0 0 0 0 1015.8 1015.8 0.2
24/10:00pm 7.6 6.7 5.9 89 0.8 CALM 0 0 0 0 1015.7 1015.7 0.2
24/09:30pm 8.1 6.0 5.7 85 1.1 NW 6 7 3 4 1015.7 1015.7 0.2
24/09:00pm 8.8 6.5 5.5 80 1.5 NW 7 7 4 4 1015.6 1015.6 0.2
24/08:30pm 9.3 7.7 6.2 81 1.4 W 4 7 2 4 1015.4 1015.4 0.2
24/08:00pm 9.9 9.0 6.1 77 1.8 CALM 0 0 0 0 1014.9 1015.0 0.2
24/07:30pm 10.2 8.1 6.5 78 1.7 WSW 7 9 4 5 1014.8 1014.9 0.2
24/07:00pm 11.4 9.2 6.3 71 2.4 SW 7 9 4 5 1014.5 1014.6 0.2
24/06:30pm 12.6 10.6 7.1 69 2.7 SW 7 9 4 5 1014.0 1014.0 0.2
24/06:00pm 14.2 10.7 3.7 49 4.8 SSW 11 15 6 8 1013.7 1013.7 0.2
24/05:30pm 14.3 9.7 3.7 49 4.9 S 17 24 9 13 1013.3 1013.3 0.2
24/05:00pm 15.1 10.1 3.6 46 5.3 S 19 26 10 14 1013.0 1013.0 0.2
24/04:30pm 14.8 9.7 3.9 48 5.0 S 20 28 11 15 1012.8 1012.8 0.2
24/04:00pm 15.2 10.6 3.7 46 5.3 SSE 17 22 9 12 1012.6 1012.6 0.2
24/03:30pm 15.6 10.4 3.4 44 5.6 SSE 20 26 11 14 1012.4 1012.4 0.2
24/03:00pm 14.8 11.2 5.1 52 4.6 SSE 13 19 7 10 1012.5 1012.5 0.2
24/02:30pm 15.2 10.9 5.1 51 4.8 S 17 26 9 14 1012.6 1012.6 0.2
24/02:00pm 14.4 11.1 6.3 58 3.9 SSW 13 19 7 10 1012.9 1012.9 0.2
24/01:30pm 14.9 11.2 6.2 56 4.2 SSE 15 24 8 13 1013.0 1013.0 0.2
24/01:00pm 13.6 9.4 5.5 58 3.8 SSE 17 22 9 12 1013.5 1013.5 0.2
24/12:30pm 14.3 10.5 5.9 57 4.0 SSE 15 20 8 11 1013.7 1013.7 0.2
24/12:00pm 14.0 10.4 6.8 62 3.5 S 15 22 8 12 1013.9 1013.9 0.0
24/11:30am 13.5 9.3 5.9 60 3.6 SSE 17 22 9 12 1014.3 1014.3 0.0
24/11:00am 13.1 9.7 7.5 69 2.8 SSE 15 20 8 11 1014.5 1014.6 0.0
24/10:30am 13.1 9.3 7.5 69 2.8 SSE 17 24 9 13 1014.6 1014.7 0.0
24/10:00am 11.9 8.6 8.2 78 1.8 S 15 20 8 11 1014.7 1014.8 0.0
24/09:30am 10.7 7.0 7.9 83 1.4 S 17 20 9 11 1014.9 1015.0 0.0
24/09:00am 9.4 5.9 7.3 87 1.0 S 15 20 8 11 1014.7 1014.8 0.0
24/08:30am 9.3 6.3 7.6 89 0.8 S 13 17 7 9 1014.6 1014.7 0.0
24/08:00am 8.7 6.8 7.5 92 0.6 SW 7 11 4 6 1014.4 1014.5 0.0
24/07:30am 8.3 7.2 6.9 91 0.7 S 2 7 1 4 1014.0 1014.0 0.0
24/07:00am 8.4 6.0 7.0 91 0.7 SSE 9 13 5 7 1013.7 1013.7 0.0
24/06:30am 8.5 5.7 7.1 91 0.7 SE 11 15 6 8 1013.2 1013.2 0.0
24/06:00am 8.8 5.3 7.3 90 0.7 SSE 15 20 8 11 1013.0 1013.0 0.0
24/05:30am 9.0 5.9 7.1 88 0.9 SSE 13 19 7 10 1012.8 1012.8 0.0
24/05:00am 8.9 5.1 7.4 90 0.7 SSW 17 24 9 13 1012.8 1012.8 0.0
24/04:30am 8.8 7.1 7.4 91 0.7 NE 6 9 3 5 1012.6 1012.6 0.0
24/04:00am 8.8 6.5 7.4 91 0.7 SSE 9 13 5 7 1012.7 1012.7 0.0
24/03:30am 8.9 7.2 7.5 91 0.7 SW 6 7 3 4 1012.7 1012.7 0.0
24/03:00am 9.2 7.3 7.5 89 0.8 S 7 9 4 5 1012.9 1012.9 0.0
24/02:30am 9.1 6.7 7.1 87 0.9 SSW 9 11 5 6 1013.3 1013.3 0.0
24/02:00am 9.5 7.5 7.3 86 1.1 SSE 7 13 4 7 1013.2 1013.2 0.0
24/01:30am 9.4 7.0 6.8 84 1.2 SE 9 13 5 7 1013.0 1013.0 0.0
24/01:00am 9.5 6.6 6.6 82 1.4 SE 11 13 6 7 1013.4 1013.4 0.0
24/12:30am 9.6 6.4 6.9 83 1.3 SE 13 17 7 9 1013.4 1013.4 0.0
24/12:00am 9.5 7.1 6.8 83 1.3 SE 9 13 5 7 1014.4 1014.5 0.0
 
Date/Time
EST
Temp
°C
App
Temp
°C
Dew
Point
°C
Rel
Hum
%
Delta-T
°C
Wind Press
QNH
hPa
Press
MSL
hPa
Rain since
9am
mm
Dir  Spd
km/h
Gust
km/h
Spd
kts
Gust
kts
23/11:30pm 9.7 6.9 6.8 82 1.4 ESE 11 13 6 7 1014.3 1014.3 0.0
23/11:00pm 9.9 6.7 6.8 81 1.5 SE 13 15 7 8 1014.8 1014.9 0.0
23/10:30pm 10.0 6.4 6.7 80 1.6 SE 15 17 8 9 1014.8 1014.9 0.0
23/10:00pm 10.1 6.7 6.1 76 1.9 SE 13 19 7 10 1015.2 1015.2 0.0
23/09:30pm 10.2 6.4 6.0 75 2.0 SE 15 17 8 9 1015.4 1015.4 0.0
23/09:00pm 10.3 7.4 6.6 78 1.8 ESE 11 15 6 8 1015.4 1015.4 0.0
23/08:30pm 10.5 7.2 6.6 77 1.8 ESE 13 17 7 9 1015.4 1015.4 0.0
23/08:00pm 10.3 6.7 6.6 78 1.8 ESE 15 20 8 11 1014.4 1014.5 0.0
23/07:30pm 10.6 7.0 6.6 76 1.9 ESE 15 24 8 13 1014.0 1014.0 0.0
23/07:00pm 11.1 7.4 6.5 73 2.2 ESE 15 20 8 11 1014.1 1014.1 0.0
23/06:30pm 11.6 7.1 6.3 70 2.5 ESE 19 24 10 13 1013.5 1013.5 0.0
23/06:00pm 12.0 7.5 6.1 67 2.8 ESE 19 26 10 14 1013.5 1013.5 0.0
23/05:30pm 12.8 8.2 6.6 66 3.0 SE 20 26 11 14 1013.3 1013.3 0.0
23/05:00pm 12.8 8.2 6.6 66 3.0 SE 20 28 11 15 1013.4 1013.4 0.0
23/04:30pm 13.0 8.5 6.8 66 3.0 SE 20 32 11 17 1013.2 1013.2 0.0
23/04:00pm 13.0 8.4 6.6 65 3.1 ESE 20 28 11 15 1013.2 1013.2 0.0
23/03:30pm 13.6 9.3 6.9 64 3.3 ESE 19 26 10 14 1013.3 1013.3 0.0
23/03:00pm 13.4 10.0 7.6 68 2.9 ESE 15 26 8 14 1013.3 1013.3 0.0
23/02:30pm 13.2 9.6 8.3 72 2.5 ESE 17 24 9 13 1013.9 1013.9 0.0
23/02:00pm 12.2 7.9 7.1 71 2.5 E 19 24 10 13 1014.2 1014.2 0.0
23/01:30pm 11.5 8.5 7.6 77 1.9 E 13 19 7 10 1014.8 1014.9 0.0
23/01:00pm 10.6 8.3 7.3 80 1.6 E 9 15 5 8 1015.6 1015.6 0.0
23/12:30pm 9.7 7.4 7.5 86 1.1 SE 9 13 5 7 1015.5 1015.5 0.0
23/12:00pm 8.9 6.2 7.4 90 0.7 SE 11 15 6 8 1015.8 1015.8 0.0
23/11:30am 8.4 6.1 7.3 93 0.5 ESE 9 13 5 7 1016.3 1016.3 0.0
23/11:00am 7.8 5.1 7.5 98 0.1 E 11 15 6 8 1016.3 1016.3 0.0
23/10:30am 7.0 4.5 6.7 98 0.1 ENE 9 15 5 8 1016.8 1016.8 0.0
23/10:00am 6.8 3.9 6.7 99 0.0 E 11 13 6 7 1016.5 1016.5 0.0
23/09:30am 6.5 4.0 6.4 99 0.0 ESE 9 11 5 6 1016.5 1016.5 0.0
23/09:00am 5.7 2.6 5.6 99 0.0 SE 11 13 6 7 1016.2 1016.2 1.8
23/08:30am 5.3 2.9 5.2 99 0.0 SE 7 9 4 5 1016.7 1016.7 1.8
23/08:00am 4.8 2.5 4.7 99 0.0 SSE 6 9 3 5 1016.2 1016.2 1.8
23/07:30am 4.5 1.9 4.4 99 0.0 ESE 7 11 4 6 1016.1 1016.1 1.8
23/07:00am 4.8 1.1 4.7 99 0.0 ENE 13 19 7 10 1016.4 1016.4 1.8
23/06:30am 5.3 2.5 5.0 98 0.1 ENE 9 13 5 7 1016.4 1016.4 1.8
23/06:00am 4.1 2.0 3.8 98 0.1 NE 4 11 2 6 1016.3 1016.3 1.8
23/05:30am 3.7 2.3 3.4 98 0.1 CALM 0 0 0 0 1015.4 1015.4 1.8
23/05:00am 4.4 3.1 4.1 98 0.1 CALM 0 0 0 0 1014.9 1015.0 1.8
23/04:30am 4.0 1.3 3.7 98 0.1 SSW 7 9 4 5 1013.2 1013.2 1.8
23/04:00am 4.1 1.0 3.8 98 0.1 S 9 9 5 5 1013.4 1013.4 1.8
23/03:30am 4.4 1.8 4.1 98 0.1 S 7 11 4 6 1013.9 1013.9 1.8
23/03:00am 4.4 1.8 4.1 98 0.1 SSW 7 9 4 5 1014.3 1014.3 1.8
23/02:30am 4.6 3.3 4.3 98 0.1 CALM 0 0 0 0 1014.4 1014.5 1.6
23/02:00am 4.3 3.0 4.0 98 0.1 CALM 0 0 0 0 1014.7 1014.8 1.6
23/01:30am 4.6 2.2 4.3 98 0.1 SSW 6 7 3 4 1015.1 1015.1 1.6
23/01:00am 5.0 2.5 4.7 98 0.1 SSW 7 11 4 6 1015.3 1015.3 1.6
23/12:30am 5.5 4.4 5.2 98 0.1 CALM 0 0 0 0 1015.6 1015.6 1.6
23/12:00am 5.6 4.5 5.3 98 0.1 CALM 0 0 0 0 1015.7 1015.7 1.6
 
Date/Time
EST
Temp
°C
App
Temp
°C
Dew
Point
°C
Rel
Hum
%
Delta-T
°C
Wind Press
QNH
hPa
Press
MSL
hPa
Rain since
9am
mm
Dir  Spd
km/h
Gust
km/h
Spd
kts
Gust
kts
22/11:30pm 5.9 4.5 5.6 98 0.1 SW 2 6 1 3 1015.7 1015.7 1.6
22/11:00pm 6.3 5.0 5.9 97 0.2 WSW 2 6 1 3 1015.6 1015.6 1.6
22/10:30pm 6.8 5.2 6.4 97 0.2 SSE 4 7 2 4 1015.6 1015.6 1.6
22/10:00pm 7.2 6.5 6.8 97 0.2 CALM 0 0 0 0 1015.5 1015.5 1.6
22/09:30pm 7.5 6.8 6.9 96 0.3 CALM 0 0 0 0 1015.6 1015.6 1.6

Other Formats:

Comma delimited format used in spreadsheet applications
http://www.bom.gov.au/fwo/IDN60801/IDN60801.94686.axf

JavaScript Object Notation format (JSON) in row-major order
http://www.bom.gov.au/fwo/IDN60801/IDN60801.94686.json